Sign-in with your pilot id or email, or register

ICAO: UHHH Name / Country: Habarovsk / Russia
Latitude: 48.528 Longitude: 135.188
Total Arrivals:
Strict Standards: Non-static method AirportData::getarrflights() should not be called statically, assuming $this from incompatible context in /var/www/customers/vh-7192/web/home/phpvms/core/templates/airport_info.tpl on line 18
1
Total Departures:
Strict Standards: Non-static method AirportData::getdeptflights() should not be called statically, assuming $this from incompatible context in /var/www/customers/vh-7192/web/home/phpvms/core/templates/airport_info.tpl on line 21
1
Latest Arrival: MTA5PM (ZBAA-UHHH) Tibor Berces Latest Departure: MTA5PM (UHHH-UHMM) Tibor Berces
Metar: UHHH 271030Z 00000MPS CAVOK 11/08 Q1017 R23L/090060 NOSIG RMK QFE756/1008
More info

Charts for UHHH


NOTAM


Warning: file_get_contents(http://api.vateud.net/notams/UHHH.json): failed to open stream: Redirection limit reached, aborting in /var/www/customers/vh-7192/web/home/phpvms/core/common/NOTAMSData.class.php on line 18

Warning: Invalid argument supplied for foreach() in /var/www/customers/vh-7192/web/home/phpvms/core/common/NOTAMSData.class.php on line 22

Habarovsk